sensor_id;sensor_type;location;lat;lon;timestamp;temperature;humidity
68842;SHT35;55849;48.482;2.332;2023-02-15T00:01:22;6.11;59.32
68842;SHT35;55849;48.482;2.332;2023-02-15T00:04:24;6.06;59.15
68842;SHT35;55849;48.482;2.332;2023-02-15T00:07:46;6.04;59.28
68842;SHT35;55849;48.482;2.332;2023-02-15T00:10:47;5.99;59.10
68842;SHT35;55849;48.482;2.332;2023-02-15T00:13:49;5.97;59.02
68842;SHT35;55849;48.482;2.332;2023-02-15T00:16:52;5.94;59.17
68842;SHT35;55849;48.482;2.332;2023-02-15T00:19:55;5.90;58.97
68842;SHT35;55849;48.482;2.332;2023-02-15T00:22:56;5.88;59.24
68842;SHT35;55849;48.482;2.332;2023-02-15T00:26:05;5.84;59.15
68842;SHT35;55849;48.482;2.332;2023-02-15T00:29:08;5.83;59.21
68842;SHT35;55849;48.482;2.332;2023-02-15T00:32:11;5.78;59.14
68842;SHT35;55849;48.482;2.332;2023-02-15T00:35:13;5.80;59.12
68842;SHT35;55849;48.482;2.332;2023-02-15T00:38:15;5.74;59.13
68842;SHT35;55849;48.482;2.332;2023-02-15T00:41:16;5.73;59.33
68842;SHT35;55849;48.482;2.332;2023-02-15T00:44:18;5.69;59.24
68842;SHT35;55849;48.482;2.332;2023-02-15T00:47:21;5.66;59.53
68842;SHT35;55849;48.482;2.332;2023-02-15T00:50:24;5.67;59.73
68842;SHT35;55849;48.482;2.332;2023-02-15T00:53:27;5.66;59.62
68842;SHT35;55849;48.482;2.332;2023-02-15T00:56:29;5.64;59.55
68842;SHT35;55849;48.482;2.332;2023-02-15T00:59:30;5.63;59.56
68842;SHT35;55849;48.482;2.332;2023-02-15T01:02:33;5.57;59.40
68842;SHT35;55849;48.482;2.332;2023-02-15T01:05:35;5.54;59.26
68842;SHT35;55849;48.482;2.332;2023-02-15T01:08:37;5.52;59.24
68842;SHT35;55849;48.482;2.332;2023-02-15T01:11:39;5.47;59.02
68842;SHT35;55849;48.482;2.332;2023-02-15T01:14:40;5.47;59.19
68842;SHT35;55849;48.482;2.332;2023-02-15T01:17:44;5.43;59.19
68842;SHT35;55849;48.482;2.332;2023-02-15T01:20:51;5.42;59.21
68842;SHT35;55849;48.482;2.332;2023-02-15T01:23:53;5.36;59.39
68842;SHT35;55849;48.482;2.332;2023-02-15T01:26:54;5.35;59.75
68842;SHT35;55849;48.482;2.332;2023-02-15T01:29:56;5.35;59.66
68842;SHT35;55849;48.482;2.332;2023-02-15T01:32:59;5.31;59.54
68842;SHT35;55849;48.482;2.332;2023-02-15T01:36:02;5.34;59.69
68842;SHT35;55849;48.482;2.332;2023-02-15T01:39:04;5.29;59.55
68842;SHT35;55849;48.482;2.332;2023-02-15T01:42:09;5.31;59.28
68842;SHT35;55849;48.482;2.332;2023-02-15T01:45:19;5.25;59.26
68842;SHT35;55849;48.482;2.332;2023-02-15T01:48:26;5.22;59.14
68842;SHT35;55849;48.482;2.332;2023-02-15T01:51:30;5.18;59.25
68842;SHT35;55849;48.482;2.332;2023-02-15T01:54:35;5.19;59.23
68842;SHT35;55849;48.482;2.332;2023-02-15T01:57:39;5.17;59.13
68842;SHT35;55849;48.482;2.332;2023-02-15T02:00:41;5.08;59.29
68842;SHT35;55849;48.482;2.332;2023-02-15T02:03:53;5.08;59.48
68842;SHT35;55849;48.482;2.332;2023-02-15T02:06:57;5.05;59.81
68842;SHT35;55849;48.482;2.332;2023-02-15T02:10:01;5.07;59.92
68842;SHT35;55849;48.482;2.332;2023-02-15T02:13:05;5.04;59.82
68842;SHT35;55849;48.482;2.332;2023-02-15T02:16:12;5.02;59.80
68842;SHT35;55849;48.482;2.332;2023-02-15T02:19:48;5.01;59.50
68842;SHT35;55849;48.482;2.332;2023-02-15T02:23:12;4.97;59.48
68842;SHT35;55849;48.482;2.332;2023-02-15T02:26:43;4.97;59.47
68842;SHT35;55849;48.482;2.332;2023-02-15T02:33:49;4.88;59.30
68842;SHT35;55849;48.482;2.332;2023-02-15T02:36:57;4.85;59.44
68842;SHT35;55849;48.482;2.332;2023-02-15T02:40:07;4.85;59.34
68842;SHT35;55849;48.482;2.332;2023-02-15T02:43:20;4.83;59.29
68842;SHT35;55849;48.482;2.332;2023-02-15T02:46:27;4.81;59.41
68842;SHT35;55849;48.482;2.332;2023-02-15T02:49:34;4.79;59.46
68842;SHT35;55849;48.482;2.332;2023-02-15T02:52:41;4.77;59.21
68842;SHT35;55849;48.482;2.332;2023-02-15T02:55:45;4.75;59.54
68842;SHT35;55849;48.482;2.332;2023-02-15T02:58:50;4.72;59.75
68842;SHT35;55849;48.482;2.332;2023-02-15T03:01:56;4.72;59.73
68842;SHT35;55849;48.482;2.332;2023-02-15T03:05:03;4.67;59.57
68842;SHT35;55849;48.482;2.332;2023-02-15T03:08:08;4.69;59.41
68842;SHT35;55849;48.482;2.332;2023-02-15T03:11:11;4.66;59.51
68842;SHT35;55849;48.482;2.332;2023-02-15T03:14:14;4.66;59.59
68842;SHT35;55849;48.482;2.332;2023-02-15T03:17:18;4.63;59.71
68842;SHT35;55849;48.482;2.332;2023-02-15T03:20:24;4.65;59.96
68842;SHT35;55849;48.482;2.332;2023-02-15T03:23:28;4.62;59.57
68842;SHT35;55849;48.482;2.332;2023-02-15T03:26:30;4.62;59.55
68842;SHT35;55849;48.482;2.332;2023-02-15T03:29:32;4.59;59.32
68842;SHT35;55849;48.482;2.332;2023-02-15T03:32:36;4.56;59.24
68842;SHT35;55849;48.482;2.332;2023-02-15T03:35:45;4.53;59.08
68842;SHT35;55849;48.482;2.332;2023-02-15T03:38:55;4.50;59.26
68842;SHT35;55849;48.482;2.332;2023-02-15T03:42:06;4.48;59.36
68842;SHT35;55849;48.482;2.332;2023-02-15T03:45:13;4.46;59.53
68842;SHT35;55849;48.482;2.332;2023-02-15T03:48:17;4.45;59.43
68842;SHT35;55849;48.482;2.332;2023-02-15T03:51:23;4.45;59.42
68842;SHT35;55849;48.482;2.332;2023-02-15T03:54:36;4.44;59.57
68842;SHT35;55849;48.482;2.332;2023-02-15T03:57:44;4.41;59.68
68842;SHT35;55849;48.482;2.332;2023-02-15T04:01:10;4.42;59.62
68842;SHT35;55849;48.482;2.332;2023-02-15T04:04:34;4.39;59.56
68842;SHT35;55849;48.482;2.332;2023-02-15T04:07:37;4.34;59.67
68842;SHT35;55849;48.482;2.332;2023-02-15T04:10:39;4.34;59.87
68842;SHT35;55849;48.482;2.332;2023-02-15T04:13:52;4.34;59.91
68842;SHT35;55849;48.482;2.332;2023-02-15T04:16:56;4.32;60.06
68842;SHT35;55849;48.482;2.332;2023-02-15T04:19:57;4.35;60.07
68842;SHT35;55849;48.482;2.332;2023-02-15T04:23:17;4.34;60.11
68842;SHT35;55849;48.482;2.332;2023-02-15T04:26:37;4.31;60.17
68842;SHT35;55849;48.482;2.332;2023-02-15T04:29:38;4.28;59.87
68842;SHT35;55849;48.482;2.332;2023-02-15T04:32:40;4.31;59.69
68842;SHT35;55849;48.482;2.332;2023-02-15T04:35:43;4.27;59.59
68842;SHT35;55849;48.482;2.332;2023-02-15T04:38:47;4.22;59.56
68842;SHT35;55849;48.482;2.332;2023-02-15T04:41:49;4.20;59.52
68842;SHT35;55849;48.482;2.332;2023-02-15T04:44:50;4.20;59.61
68842;SHT35;55849;48.482;2.332;2023-02-15T04:47:52;4.18;59.73
68842;SHT35;55849;48.482;2.332;2023-02-15T04:50:54;4.17;59.80
68842;SHT35;55849;48.482;2.332;2023-02-15T04:53:57;4.17;59.94
68842;SHT35;55849;48.482;2.332;2023-02-15T04:56:58;4.14;59.85
68842;SHT35;55849;48.482;2.332;2023-02-15T05:00:00;4.15;59.65
68842;SHT35;55849;48.482;2.332;2023-02-15T05:03:02;4.14;59.56
68842;SHT35;55849;48.482;2.332;2023-02-15T05:06:04;4.11;59.84
68842;SHT35;55849;48.482;2.332;2023-02-15T05:09:07;4.08;59.98
68842;SHT35;55849;48.482;2.332;2023-02-15T05:12:08;4.10;59.61
68842;SHT35;55849;48.482;2.332;2023-02-15T05:15:10;4.07;59.58
68842;SHT35;55849;48.482;2.332;2023-02-15T05:18:12;4.04;59.38
68842;SHT35;55849;48.482;2.332;2023-02-15T05:21:13;4.01;59.38
68842;SHT35;55849;48.482;2.332;2023-02-15T05:24:18;4.01;59.40
68842;SHT35;55849;48.482;2.332;2023-02-15T05:27:37;3.97;59.57
68842;SHT35;55849;48.482;2.332;2023-02-15T05:31:03;3.96;59.73
68842;SHT35;55849;48.482;2.332;2023-02-15T05:34:05;3.96;59.89
68842;SHT35;55849;48.482;2.332;2023-02-15T05:37:07;3.96;59.89
68842;SHT35;55849;48.482;2.332;2023-02-15T05:40:11;3.93;59.62
68842;SHT35;55849;48.482;2.332;2023-02-15T05:43:12;3.90;59.64
68842;SHT35;55849;48.482;2.332;2023-02-15T05:46:14;3.89;59.69
68842;SHT35;55849;48.482;2.332;2023-02-15T05:49:16;3.89;59.59
68842;SHT35;55849;48.482;2.332;2023-02-15T05:52:17;3.87;59.86
68842;SHT35;55849;48.482;2.332;2023-02-15T05:55:20;3.86;59.26
68842;SHT35;55849;48.482;2.332;2023-02-15T05:58:22;3.85;59.60
68842;SHT35;55849;48.482;2.332;2023-02-15T06:01:24;3.80;59.86
68842;SHT35;55849;48.482;2.332;2023-02-15T06:04:26;3.82;59.98
68842;SHT35;55849;48.482;2.332;2023-02-15T06:07:27;3.79;60.06
68842;SHT35;55849;48.482;2.332;2023-02-15T06:10:30;3.79;59.90
68842;SHT35;55849;48.482;2.332;2023-02-15T06:13:32;3.79;59.86
68842;SHT35;55849;48.482;2.332;2023-02-15T06:16:34;3.76;59.59
68842;SHT35;55849;48.482;2.332;2023-02-15T06:19:36;3.75;59.63
68842;SHT35;55849;48.482;2.332;2023-02-15T06:22:37;3.72;59.67
68842;SHT35;55849;48.482;2.332;2023-02-15T06:25:40;3.76;59.64
68842;SHT35;55849;48.482;2.332;2023-02-15T06:28:42;3.71;59.61
68842;SHT35;55849;48.482;2.332;2023-02-15T06:31:43;3.72;59.83
68842;SHT35;55849;48.482;2.332;2023-02-15T06:34:45;3.72;59.87
68842;SHT35;55849;48.482;2.332;2023-02-15T06:37:47;3.71;59.88
68842;SHT35;55849;48.482;2.332;2023-02-15T06:40:51;3.69;60.05
68842;SHT35;55849;48.482;2.332;2023-02-15T06:43:52;3.68;60.11
68842;SHT35;55849;48.482;2.332;2023-02-15T06:46:54;3.68;60.19
68842;SHT35;55849;48.482;2.332;2023-02-15T06:49:55;3.69;60.06
68842;SHT35;55849;48.482;2.332;2023-02-15T06:52:58;3.68;59.94
68842;SHT35;55849;48.482;2.332;2023-02-15T06:56:02;3.66;59.74
68842;SHT35;55849;48.482;2.332;2023-02-15T06:59:06;3.69;59.74
68842;SHT35;55849;48.482;2.332;2023-02-15T07:02:08;3.68;60.06
68842;SHT35;55849;48.482;2.332;2023-02-15T07:05:10;3.66;60.10
68842;SHT35;55849;48.482;2.332;2023-02-15T07:08:11;3.62;60.27
68842;SHT35;55849;48.482;2.332;2023-02-15T07:11:14;3.66;60.33
68842;SHT35;55849;48.482;2.332;2023-02-15T07:14:33;3.66;60.42
68842;SHT35;55849;48.482;2.332;2023-02-15T07:17:36;3.65;60.45
68842;SHT35;55849;48.482;2.332;2023-02-15T07:20:38;3.63;60.51
68842;SHT35;55849;48.482;2.332;2023-02-15T07:23:41;3.63;60.73
68842;SHT35;55849;48.482;2.332;2023-02-15T07:26:44;3.68;60.71
68842;SHT35;55849;48.482;2.332;2023-02-15T07:29:46;3.69;61.03
68842;SHT35;55849;48.482;2.332;2023-02-15T07:32:48;3.68;61.13
68842;SHT35;55849;48.482;2.332;2023-02-15T07:36:07;3.72;61.34
68842;SHT35;55849;48.482;2.332;2023-02-15T07:39:12;3.73;61.47
68842;SHT35;55849;48.482;2.332;2023-02-15T07:42:15;3.73;61.64
68842;SHT35;55849;48.482;2.332;2023-02-15T07:45:18;3.75;61.80
68842;SHT35;55849;48.482;2.332;2023-02-15T07:48:19;3.79;61.85
68842;SHT35;55849;48.482;2.332;2023-02-15T07:51:21;3.82;61.90
68842;SHT35;55849;48.482;2.332;2023-02-15T07:54:23;3.87;61.91
68842;SHT35;55849;48.482;2.332;2023-02-15T07:57:26;3.90;61.99
68842;SHT35;55849;48.482;2.332;2023-02-15T08:00:27;3.90;62.12
68842;SHT35;55849;48.482;2.332;2023-02-15T08:03:30;3.96;62.06
68842;SHT35;55849;48.482;2.332;2023-02-15T08:06:33;3.98;62.34
68842;SHT35;55849;48.482;2.332;2023-02-15T08:09:35;4.04;62.65
68842;SHT35;55849;48.482;2.332;2023-02-15T08:12:38;4.04;62.69
68842;SHT35;55849;48.482;2.332;2023-02-15T08:15:39;4.08;62.87
68842;SHT35;55849;48.482;2.332;2023-02-15T08:18:41;4.11;62.96
68842;SHT35;55849;48.482;2.332;2023-02-15T08:21:45;4.14;63.30
68842;SHT35;55849;48.482;2.332;2023-02-15T08:24:47;4.18;63.43
68842;SHT35;55849;48.482;2.332;2023-02-15T08:27:50;4.20;63.50
68842;SHT35;55849;48.482;2.332;2023-02-15T08:30:52;4.24;63.78
68842;SHT35;55849;48.482;2.332;2023-02-15T08:33:55;4.28;63.87
68842;SHT35;55849;48.482;2.332;2023-02-15T08:36:57;4.31;63.95
68842;SHT35;55849;48.482;2.332;2023-02-15T16:39:21;15.11;54.67
68842;SHT35;55849;48.482;2.332;2023-02-15T16:42:23;14.98;54.92
68842;SHT35;55849;48.482;2.332;2023-02-15T16:45:26;14.79;54.88
68842;SHT35;55849;48.482;2.332;2023-02-15T16:48:32;14.64;55.27
68842;SHT35;55849;48.482;2.332;2023-02-15T16:51:35;14.52;55.86
68842;SHT35;55849;48.482;2.332;2023-02-15T16:54:41;14.36;55.37
68842;SHT35;55849;48.482;2.332;2023-02-15T16:57:43;14.17;55.99
68842;SHT35;55849;48.482;2.332;2023-02-15T17:00:45;13.99;56.31
68842;SHT35;55849;48.482;2.332;2023-02-15T17:03:48;13.82;56.66
68842;SHT35;55849;48.482;2.332;2023-02-15T17:06:58;13.68;56.65
68842;SHT35;55849;48.482;2.332;2023-02-15T17:10:02;13.53;56.76
68842;SHT35;55849;48.482;2.332;2023-02-15T17:13:09;13.35;57.03
68842;SHT35;55849;48.482;2.332;2023-02-15T17:16:27;13.15;56.78
68842;SHT35;55849;48.482;2.332;2023-02-15T17:19:33;12.98;57.25
68842;SHT35;55849;48.482;2.332;2023-02-15T17:22:41;12.84;57.50
68842;SHT35;55849;48.482;2.332;2023-02-15T17:25:44;12.69;57.75
68842;SHT35;55849;48.482;2.332;2023-02-15T17:28:49;12.54;57.77
68842;SHT35;55849;48.482;2.332;2023-02-15T17:31:52;12.43;58.05
68842;SHT35;55849;48.482;2.332;2023-02-15T17:35:07;12.29;58.06
68842;SHT35;55849;48.482;2.332;2023-02-15T17:38:18;12.16;58.20
68842;SHT35;55849;48.482;2.332;2023-02-15T17:41:21;12.06;58.04
68842;SHT35;55849;48.482;2.332;2023-02-15T17:44:22;11.94;58.45
68842;SHT35;55849;48.482;2.332;2023-02-15T17:47:24;11.81;58.78
68842;SHT35;55849;48.482;2.332;2023-02-15T17:50:29;11.74;58.80
68842;SHT35;55849;48.482;2.332;2023-02-15T17:53:31;11.66;58.56
68842;SHT35;55849;48.482;2.332;2023-02-15T17:56:36;11.55;58.93
68842;SHT35;55849;48.482;2.332;2023-02-15T17:59:37;11.46;59.30
68842;SHT35;55849;48.482;2.332;2023-02-15T18:02:55;11.36;59.51
68842;SHT35;55849;48.482;2.332;2023-02-15T18:06:15;11.31;59.38
68842;SHT35;55849;48.482;2.332;2023-02-15T18:09:34;11.23;59.17
68842;SHT35;55849;48.482;2.332;2023-02-15T18:12:55;11.15;59.77
68842;SHT35;55849;48.482;2.332;2023-02-15T18:15:56;11.05;59.75
68842;SHT35;55849;48.482;2.332;2023-02-15T18:18:58;10.98;59.92
68842;SHT35;55849;48.482;2.332;2023-02-15T18:22:00;10.94;59.88
68842;SHT35;55849;48.482;2.332;2023-02-15T18:25:02;10.84;59.98
68842;SHT35;55849;48.482;2.332;2023-02-15T18:28:05;10.83;60.11
68842;SHT35;55849;48.482;2.332;2023-02-15T18:31:07;10.74;60.12
68842;SHT35;55849;48.482;2.332;2023-02-15T18:34:20;10.67;60.17
68842;SHT35;55849;48.482;2.332;2023-02-15T18:37:29;10.60;59.77
68842;SHT35;55849;48.482;2.332;2023-02-15T18:40:32;10.52;59.22
68842;SHT35;55849;48.482;2.332;2023-02-15T18:43:35;10.46;59.96
68842;SHT35;55849;48.482;2.332;2023-02-15T18:46:37;10.39;60.07
68842;SHT35;55849;48.482;2.332;2023-02-15T18:49:38;10.32;60.28
68842;SHT35;55849;48.482;2.332;2023-02-15T18:52:41;10.27;60.38
68842;SHT35;55849;48.482;2.332;2023-02-15T18:55:44;10.21;60.38
68842;SHT35;55849;48.482;2.332;2023-02-15T18:58:47;10.15;60.42
68842;SHT35;55849;48.482;2.332;2023-02-15T19:01:50;10.10;60.41
68842;SHT35;55849;48.482;2.332;2023-02-15T19:04:51;10.04;60.38
68842;SHT35;55849;48.482;2.332;2023-02-15T19:07:53;9.95;60.18
68842;SHT35;55849;48.482;2.332;2023-02-15T19:10:56;9.93;60.12
68842;SHT35;55849;48.482;2.332;2023-02-15T19:13:59;9.84;60.15
68842;SHT35;55849;48.482;2.332;2023-02-15T19:17:01;9.79;60.02
68842;SHT35;55849;48.482;2.332;2023-02-15T19:20:03;9.72;60.33
68842;SHT35;55849;48.482;2.332;2023-02-15T19:23:06;9.65;60.33
68842;SHT35;55849;48.482;2.332;2023-02-15T19:26:09;9.59;59.82
68842;SHT35;55849;48.482;2.332;2023-02-15T19:29:14;9.51;59.69
68842;SHT35;55849;48.482;2.332;2023-02-15T19:32:17;9.39;59.55
68842;SHT35;55849;48.482;2.332;2023-02-15T19:35:20;9.35;59.19
68842;SHT35;55849;48.482;2.332;2023-02-15T19:38:25;9.24;59.62
68842;SHT35;55849;48.482;2.332;2023-02-15T19:41:31;9.18;59.65
68842;SHT35;55849;48.482;2.332;2023-02-15T19:44:35;9.11;59.49
68842;SHT35;55849;48.482;2.332;2023-02-15T19:47:36;9.04;59.52
68842;SHT35;55849;48.482;2.332;2023-02-15T19:50:38;8.97;59.77
68842;SHT35;55849;48.482;2.332;2023-02-15T19:53:40;8.90;60.25
68842;SHT35;55849;48.482;2.332;2023-02-15T19:56:41;8.89;60.28
68842;SHT35;55849;48.482;2.332;2023-02-15T19:59:45;8.83;59.82
68842;SHT35;55849;48.482;2.332;2023-02-15T20:02:47;8.77;59.74
68842;SHT35;55849;48.482;2.332;2023-02-15T20:05:48;8.72;60.09
68842;SHT35;55849;48.482;2.332;2023-02-15T20:08:50;8.68;60.64
68842;SHT35;55849;48.482;2.332;2023-02-15T20:11:52;8.65;60.70
68842;SHT35;55849;48.482;2.332;2023-02-15T20:14:55;8.61;60.56
68842;SHT35;55849;48.482;2.332;2023-02-15T20:17:59;8.55;60.15
68842;SHT35;55849;48.482;2.332;2023-02-15T20:21:02;8.48;60.45
68842;SHT35;55849;48.482;2.332;2023-02-15T20:24:05;8.47;60.67
68842;SHT35;55849;48.482;2.332;2023-02-15T20:27:10;8.44;60.54
68842;SHT35;55849;48.482;2.332;2023-02-15T20:30:18;8.40;60.62
68842;SHT35;55849;48.482;2.332;2023-02-15T20:33:21;8.33;60.71
68842;SHT35;55849;48.482;2.332;2023-02-15T20:36:23;8.29;60.77
68842;SHT35;55849;48.482;2.332;2023-02-15T20:39:25;8.29;60.93
68842;SHT35;55849;48.482;2.332;2023-02-15T20:42:28;8.26;60.74
68842;SHT35;55849;48.482;2.332;2023-02-15T20:45:32;8.19;60.67
68842;SHT35;55849;48.482;2.332;2023-02-15T20:48:34;8.17;60.60
68842;SHT35;55849;48.482;2.332;2023-02-15T20:51:36;8.12;60.97
68842;SHT35;55849;48.482;2.332;2023-02-15T20:54:40;8.09;61.08
68842;SHT35;55849;48.482;2.332;2023-02-15T20:57:41;8.04;60.91
68842;SHT35;55849;48.482;2.332;2023-02-15T21:00:45;8.03;61.14
68842;SHT35;55849;48.482;2.332;2023-02-15T21:03:46;7.96;61.06
68842;SHT35;55849;48.482;2.332;2023-02-15T21:06:48;7.90;61.15
68842;SHT35;55849;48.482;2.332;2023-02-15T21:09:52;7.90;61.03
68842;SHT35;55849;48.482;2.332;2023-02-15T21:12:54;7.86;61.05
68842;SHT35;55849;48.482;2.332;2023-02-15T21:15:58;7.85;61.07
68842;SHT35;55849;48.482;2.332;2023-02-15T21:19:00;7.82;61.01
68842;SHT35;55849;48.482;2.332;2023-02-15T21:22:02;7.75;61.11
68842;SHT35;55849;48.482;2.332;2023-02-15T21:25:04;7.72;61.20
68842;SHT35;55849;48.482;2.332;2023-02-15T21:28:14;7.69;61.11
68842;SHT35;55849;48.482;2.332;2023-02-15T21:31:18;7.67;61.17
68842;SHT35;55849;48.482;2.332;2023-02-15T21:34:20;7.64;61.24
68842;SHT35;55849;48.482;2.332;2023-02-15T21:37:27;7.60;61.20
68842;SHT35;55849;48.482;2.332;2023-02-15T21:40:31;7.58;61.07
68842;SHT35;55849;48.482;2.332;2023-02-15T21:43:33;7.52;61.05
68842;SHT35;55849;48.482;2.332;2023-02-15T21:46:52;7.48;60.99
68842;SHT35;55849;48.482;2.332;2023-02-15T21:50:21;7.41;60.85
68842;SHT35;55849;48.482;2.332;2023-02-15T21:53:42;7.37;60.70
68842;SHT35;55849;48.482;2.332;2023-02-15T21:56:45;7.36;60.68
68842;SHT35;55849;48.482;2.332;2023-02-15T21:59:47;7.30;60.54
68842;SHT35;55849;48.482;2.332;2023-02-15T22:02:52;7.24;60.77
68842;SHT35;55849;48.482;2.332;2023-02-15T22:05:54;7.23;60.92
68842;SHT35;55849;48.482;2.332;2023-02-15T22:08:56;7.20;60.85
68842;SHT35;55849;48.482;2.332;2023-02-15T22:11:58;7.17;60.64
68842;SHT35;55849;48.482;2.332;2023-02-15T22:15:00;7.13;60.85
68842;SHT35;55849;48.482;2.332;2023-02-15T22:18:04;7.08;61.03
68842;SHT35;55849;48.482;2.332;2023-02-15T22:21:07;7.06;60.97
68842;SHT35;55849;48.482;2.332;2023-02-15T22:24:09;7.05;61.26
68842;SHT35;55849;48.482;2.332;2023-02-15T22:27:16;7.02;61.37
68842;SHT35;55849;48.482;2.332;2023-02-15T22:30:23;7.01;61.32
68842;SHT35;55849;48.482;2.332;2023-02-15T22:33:28;6.99;61.12
68842;SHT35;55849;48.482;2.332;2023-02-15T22:36:31;6.95;61.31
68842;SHT35;55849;48.482;2.332;2023-02-15T22:39:33;6.93;61.15
68842;SHT35;55849;48.482;2.332;2023-02-15T22:42:34;6.92;61.10
68842;SHT35;55849;48.482;2.332;2023-02-15T22:45:36;6.85;60.98
68842;SHT35;55849;48.482;2.332;2023-02-15T22:48:41;6.84;60.76
68842;SHT35;55849;48.482;2.332;2023-02-15T22:51:45;6.81;61.11
68842;SHT35;55849;48.482;2.332;2023-02-15T22:54:47;6.75;61.18
68842;SHT35;55849;48.482;2.332;2023-02-15T22:57:50;6.77;61.15
68842;SHT35;55849;48.482;2.332;2023-02-15T23:00:53;6.73;61.14
68842;SHT35;55849;48.482;2.332;2023-02-15T23:03:56;6.70;61.05
68842;SHT35;55849;48.482;2.332;2023-02-15T23:06:57;6.67;61.00
68842;SHT35;55849;48.482;2.332;2023-02-15T23:10:00;6.60;61.06
68842;SHT35;55849;48.482;2.332;2023-02-15T23:13:06;6.61;61.23
68842;SHT35;55849;48.482;2.332;2023-02-15T23:16:24;6.56;61.23
68842;SHT35;55849;48.482;2.332;2023-02-15T23:19:28;6.53;61.34
68842;SHT35;55849;48.482;2.332;2023-02-15T23:22:29;6.49;61.30
68842;SHT35;55849;48.482;2.332;2023-02-15T23:25:31;6.47;61.27
68842;SHT35;55849;48.482;2.332;2023-02-15T23:28:35;6.41;61.41
68842;SHT35;55849;48.482;2.332;2023-02-15T23:31:39;6.39;61.35
68842;SHT35;55849;48.482;2.332;2023-02-15T23:34:43;6.39;61.44
68842;SHT35;55849;48.482;2.332;2023-02-15T23:37:45;6.37;61.42
68842;SHT35;55849;48.482;2.332;2023-02-15T23:40:49;6.34;61.37
68842;SHT35;55849;48.482;2.332;2023-02-15T23:44:10;6.33;61.29
68842;SHT35;55849;48.482;2.332;2023-02-15T23:47:18;6.29;61.22
68842;SHT35;55849;48.482;2.332;2023-02-15T23:50:42;6.28;61.35
68842;SHT35;55849;48.482;2.332;2023-02-15T23:53:44;6.23;61.38
68842;SHT35;55849;48.482;2.332;2023-02-15T23:56:49;6.22;61.45
68842;SHT35;55849;48.482;2.332;2023-02-15T23:59:51;6.21;61.37
